Time;durP1;ratioP1;P1;durP2;ratioP2;P2;SDS_P1;SDS_P2;PMS_P1;PMS_P2;Temp;Humidity;BMP_temperature;BMP_pressure;BME280_temperature;BME280_humidity;BME280_pressure;Samples;Min_cycle;Max_cycle;Signal;HPM_P1;HPM_P2
2022/01/21 00:00:29;;;;;;;16.17;3.80;;;;;;;;;;4905677;29;20317;-76
2022/01/21 00:02:55;;;;;;;10.00;1.70;;;;;;;;;;4920371;29;20128;-76
2022/01/21 00:05:23;;;;;;;14.65;2.63;;;;;;;;;;4910407;29;20378;-74
2022/01/21 00:07:49;;;;;;;13.82;2.40;;;;;;;;;;4937340;28;20061;-75
2022/01/21 00:10:15;;;;;;;12.00;2.00;;;;;;;;;;4939666;28;20475;-74
2022/01/21 00:12:41;;;;;;;10.45;2.88;;;;;;;;;;4892014;28;20062;-74
2022/01/21 00:15:10;;;;;;;9.32;1.75;;;;;;;;;;4938144;29;20047;-73
2022/01/21 00:17:37;;;;;;;7.82;1.40;;;;;;;;;;4919709;28;20056;-74
2022/01/21 00:31:03;;;;;;;14.80;2.35;;;;;;;;;;4932125;28;20050;-74
2022/01/21 00:33:30;;;;;;;16.50;2.38;;;;;;;;;;4929718;29;20039;-73
2022/01/21 00:35:57;;;;;;;14.05;2.08;;;;;;;;;;4911120;29;20040;-72
2022/01/21 00:38:25;;;;;;;20.25;2.13;;;;;;;;;;4929172;29;20387;-75
2022/01/21 00:40:54;;;;;;;12.57;2.00;;;;;;;;;;4928854;29;20075;-75
2022/01/21 00:43:31;;;;;;;16.23;2.35;;;;;;;;;;4930061;29;20063;-75
2022/01/21 00:45:58;;;;;;;15.07;2.10;;;;;;;;;;4928360;29;20261;-73
2022/01/21 00:48:24;;;;;;;9.13;1.88;;;;;;;;;;4930370;29;20090;-74
2022/01/21 00:50:50;;;;;;;16.77;2.20;;;;;;;;;;4930285;29;20470;-74
2022/01/21 00:53:16;;;;;;;15.57;1.95;;;;;;;;;;4930941;29;20051;-74
2022/01/21 00:55:43;;;;;;;10.98;1.95;;;;;;;;;;4928912;29;20052;-75
2022/01/21 00:58:09;;;;;;;12.35;1.60;;;;;;;;;;4918740;29;20372;-74
2022/01/21 01:00:36;;;;;;;11.20;1.42;;;;;;;;;;4929268;29;20451;-75
2022/01/21 01:03:03;;;;;;;13.80;2.45;;;;;;;;;;4912069;29;20055;-74
2022/01/21 01:05:29;;;;;;;15.25;1.77;;;;;;;;;;4912046;29;20091;-74
2022/01/21 01:07:55;;;;;;;14.70;2.17;;;;;;;;;;4927643;29;20074;-74
2022/01/21 01:10:39;;;;;;;11.18;1.48;;;;;;;;;;4924311;29;20043;-74
2022/01/21 01:21:27;;;;;;;13.52;2.58;;;;;;;;;;4920316;29;20520;-74
2022/01/21 01:29:19;;;;;;;10.88;1.83;;;;;;;;;;4915514;29;20062;-74
2022/01/21 01:31:45;;;;;;;7.25;1.08;;;;;;;;;;4930867;28;20122;-74
2022/01/21 01:34:12;;;;;;;9.10;1.10;;;;;;;;;;4949539;28;20048;-73
2022/01/21 01:36:39;;;;;;;14.10;1.40;;;;;;;;;;4904695;29;20478;-74
2022/01/21 01:39:16;;;;;;;7.72;1.48;;;;;;;;;;4912066;29;20416;-74
2022/01/21 01:42:00;;;;;;;9.48;1.02;;;;;;;;;;4913396;29;20393;-77
2022/01/21 01:49:55;;;;;;;13.25;1.42;;;;;;;;;;4924554;29;20192;-73
2022/01/21 01:52:22;;;;;;;6.20;1.08;;;;;;;;;;4922995;29;20502;-74
2022/01/21 01:54:50;;;;;;;9.77;1.40;;;;;;;;;;4926603;29;20047;-74
2022/01/21 02:00:00;;;;;;;9.57;1.10;;;;;;;;;;4922988;28;20078;-74
2022/01/21 02:02:26;;;;;;;10.75;1.58;;;;;;;;;;4944885;29;20051;-74
2022/01/21 02:04:52;;;;;;;7.47;1.00;;;;;;;;;;4921021;29;20486;-74
2022/01/21 02:07:18;;;;;;;10.50;1.50;;;;;;;;;;4928372;29;20043;-74
2022/01/21 02:09:44;;;;;;;8.82;1.35;;;;;;;;;;4912553;29;20134;-74
2022/01/21 02:12:11;;;;;;;9.20;1.63;;;;;;;;;;4938738;29;20077;-74
2022/01/21 02:14:46;;;;;;;16.48;1.90;;;;;;;;;;4926798;29;20447;-74
2022/01/21 02:21:28;;;;;;;13.43;1.77;;;;;;;;;;4893558;29;20126;-74
2022/01/21 02:22:49;;;;;;;14.50;1.88;;;;;;;;;;4922754;28;20062;-74
2022/01/21 02:25:16;;;;;;;11.45;1.80;;;;;;;;;;4940716;29;20479;-74
2022/01/21 02:27:46;;;;;;;13.63;2.58;;;;;;;;;;4920195;29;20047;-74
2022/01/21 02:30:19;;;;;;;12.20;1.90;;;;;;;;;;4930224;29;20655;-74
2022/01/21 02:32:47;;;;;;;21.08;3.15;;;;;;;;;;4946088;29;20090;-74
2022/01/21 02:35:13;;;;;;;12.55;1.42;;;;;;;;;;4927040;29;20134;-75
2022/01/21 02:37:39;;;;;;;9.75;1.63;;;;;;;;;;4928359;29;20079;-74
2022/01/21 02:40:06;;;;;;;12.85;1.60;;;;;;;;;;4912388;29;20273;-74
2022/01/21 02:42:32;;;;;;;14.35;1.88;;;;;;;;;;4943716;29;20070;-74
2022/01/21 02:44:59;;;;;;;7.32;1.15;;;;;;;;;;4913285;29;20520;-74
2022/01/21 02:47:25;;;;;;;15.93;1.65;;;;;;;;;;4923456;29;20360;-74
2022/01/21 02:49:51;;;;;;;13.82;2.55;;;;;;;;;;4939024;28;20058;-74
2022/01/21 02:52:19;;;;;;;19.27;1.83;;;;;;;;;;4910292;29;20150;-75
2022/01/21 02:54:45;;;;;;;13.75;1.23;;;;;;;;;;4924380;29;20047;-74
2022/01/21 02:57:12;;;;;;;9.05;1.33;;;;;;;;;;4941659;29;20047;-74
2022/01/21 02:59:38;;;;;;;13.57;1.85;;;;;;;;;;4927541;29;20046;-74
2022/01/21 03:02:05;;;;;;;13.35;1.73;;;;;;;;;;4926083;29;20043;-74
2022/01/21 03:04:37;;;;;;;12.35;1.50;;;;;;;;;;4927979;29;20055;-74
2022/01/21 03:07:04;;;;;;;13.50;2.63;;;;;;;;;;4921430;29;20087;-74
2022/01/21 03:09:30;;;;;;;12.48;1.25;;;;;;;;;;4925519;29;20054;-73
2022/01/21 03:11:56;;;;;;;17.15;1.85;;;;;;;;;;4911540;29;20078;-74
2022/01/21 03:14:22;;;;;;;10.15;1.55;;;;;;;;;;4923009;29;20084;-74
2022/01/21 03:16:49;;;;;;;17.80;1.65;;;;;;;;;;4927377;29;20043;-73
2022/01/21 03:19:15;;;;;;;12.55;1.20;;;;;;;;;;4920076;28;20467;-74
2022/01/21 03:21:41;;;;;;;15.32;2.10;;;;;;;;;;4928683;28;20134;-74
2022/01/21 03:24:07;;;;;;;9.85;1.73;;;;;;;;;;4923455;29;20081;-73
2022/01/21 03:26:33;;;;;;;13.95;1.60;;;;;;;;;;4923723;29;20062;-73
2022/01/21 03:29:00;;;;;;;10.38;1.65;;;;;;;;;;4928033;29;20055;-73
2022/01/21 03:31:27;;;;;;;11.35;1.38;;;;;;;;;;4904265;29;20055;-73
2022/01/21 03:33:53;;;;;;;10.95;1.70;;;;;;;;;;4919927;29;20106;-73
2022/01/21 03:36:19;;;;;;;16.77;1.58;;;;;;;;;;4928210;28;20111;-75
2022/01/21 03:38:45;;;;;;;14.07;1.90;;;;;;;;;;4924900;29;20071;-74
2022/01/21 03:41:11;;;;;;;18.15;1.40;;;;;;;;;;4942290;29;20051;-74
2022/01/21 03:43:38;;;;;;;10.07;1.13;;;;;;;;;;4930614;29;20043;-73
2022/01/21 03:46:04;;;;;;;8.80;1.30;;;;;;;;;;4921414;29;20150;-74
2022/01/21 03:48:31;;;;;;;11.20;1.48;;;;;;;;;;4929406;29;20051;-73
2022/01/21 03:50:57;;;;;;;13.00;1.20;;;;;;;;;;4931362;29;20142;-73
2022/01/21 03:53:23;;;;;;;8.55;1.63;;;;;;;;;;4928422;28;20133;-74
2022/01/21 03:55:49;;;;;;;8.07;1.52;;;;;;;;;;4914559;29;20078;-74
2022/01/21 03:58:15;;;;;;;16.15;1.50;;;;;;;;;;4932222;29;20113;-75
2022/01/21 04:00:43;;;;;;;11.68;1.20;;;;;;;;;;4930123;29;20043;-74
2022/01/21 04:03:09;;;;;;;12.23;0.90;;;;;;;;;;4931698;29;20102;-73
2022/01/21 04:05:35;;;;;;;9.05;1.17;;;;;;;;;;4927181;29;20046;-74
2022/01/21 04:08:06;;;;;;;8.55;0.82;;;;;;;;;;4926404;29;20090;-74
2022/01/21 04:10:32;;;;;;;8.95;1.00;;;;;;;;;;4944720;28;20581;-73
2022/01/21 04:12:58;;;;;;;14.60;1.08;;;;;;;;;;4928308;29;20071;-73
2022/01/21 04:15:24;;;;;;;17.33;1.33;;;;;;;;;;4912164;29;20040;-74
2022/01/21 04:17:51;;;;;;;13.23;1.50;;;;;;;;;;4926709;29;20459;-73
2022/01/21 04:20:17;;;;;;;11.32;1.65;;;;;;;;;;4925020;29;20040;-74
2022/01/21 04:22:43;;;;;;;16.33;1.73;;;;;;;;;;4922418;29;20098;-74
2022/01/21 04:25:09;;;;;;;18.85;1.77;;;;;;;;;;4928861;29;20122;-73
2022/01/21 04:27:36;;;;;;;20.80;2.55;;;;;;;;;;4933666;28;20047;-73
2022/01/21 04:30:03;;;;;;;21.55;2.70;;;;;;;;;;4926982;29;20045;-73
2022/01/21 04:32:29;;;;;;;13.38;2.53;;;;;;;;;;4948337;29;20043;-74
2022/01/21 04:34:55;;;;;;;15.95;3.45;;;;;;;;;;4914262;29;20498;-73
2022/01/21 04:37:21;;;;;;;25.45;3.10;;;;;;;;;;4917568;29;20456;-73
2022/01/21 04:39:54;;;;;;;10.27;2.25;;;;;;;;;;4899668;29;20078;-73
2022/01/21 04:47:35;;;;;;;9.23;1.30;;;;;;;;;;4926508;29;20083;-74
2022/01/21 04:50:09;;;;;;;14.93;2.05;;;;;;;;;;4931953;29;20043;-73
2022/01/21 04:52:35;;;;;;;10.55;1.55;;;;;;;;;;4928156;29;20047;-73
2022/01/21 04:55:01;;;;;;;15.50;2.17;;;;;;;;;;4929261;29;20083;-74
2022/01/21 04:57:29;;;;;;;17.15;2.10;;;;;;;;;;4945041;28;20417;-74
2022/01/21 04:59:55;;;;;;;18.40;1.40;;;;;;;;;;4911731;29;20137;-73
2022/01/21 05:02:23;;;;;;;13.73;1.50;;;;;;;;;;4926194;29;20163;-74
2022/01/21 05:04:49;;;;;;;14.82;1.65;;;;;;;;;;4916805;29;20419;-73
2022/01/21 05:07:20;;;;;;;12.52;1.38;;;;;;;;;;4910153;29;20543;-73
2022/01/21 05:09:46;;;;;;;19.45;1.95;;;;;;;;;;4927185;29;20039;-75
2022/01/21 05:12:17;;;;;;;14.32;1.75;;;;;;;;;;4953609;29;20373;-75
2022/01/21 05:15:10;;;;;;;18.17;1.55;;;;;;;;;;4929630;29;20047;-83
2022/01/21 05:17:44;;;;;;;20.25;2.10;;;;;;;;;;4927088;29;20051;-72
2022/01/21 05:20:11;;;;;;;12.30;1.65;;;;;;;;;;4924823;29;20071;-72
2022/01/21 05:22:37;;;;;;;10.88;1.70;;;;;;;;;;4915003;29;20051;-75
2022/01/21 05:25:03;;;;;;;14.65;1.80;;;;;;;;;;4933324;29;20098;-75
2022/01/21 05:27:29;;;;;;;15.50;1.85;;;;;;;;;;4929401;28;20480;-75
2022/01/21 05:29:55;;;;;;;16.38;1.73;;;;;;;;;;4948035;29;20480;-74
2022/01/21 05:32:21;;;;;;;20.48;2.50;;;;;;;;;;4905347;29;20043;-77
2022/01/21 05:34:48;;;;;;;21.73;3.45;;;;;;;;;;4893588;29;20051;-74
2022/01/21 05:37:14;;;;;;;19.33;3.35;;;;;;;;;;4933149;29;20493;-74
2022/01/21 05:39:40;;;;;;;16.60;3.47;;;;;;;;;;4912249;29;20044;-75
2022/01/21 05:42:07;;;;;;;25.25;3.50;;;;;;;;;;4921871;29;20036;-74
2022/01/21 05:46:59;;;;;;;17.95;3.15;;;;;;;;;;4936915;29;20051;-77
2022/01/21 05:49:27;;;;;;;23.58;1.88;;;;;;;;;;4920705;29;20035;-75
2022/01/21 05:52:01;;;;;;;15.07;2.13;;;;;;;;;;4929289;29;20051;-74
2022/01/21 05:54:27;;;;;;;10.95;1.83;;;;;;;;;;4921097;29;20447;-75
2022/01/21 05:56:53;;;;;;;19.75;2.20;;;;;;;;;;4937380;29;20051;-75
2022/01/21 05:59:19;;;;;;;15.35;1.50;;;;;;;;;;4921505;29;20412;-76
2022/01/21 06:01:46;;;;;;;19.25;1.70;;;;;;;;;;4931393;29;20075;-75
2022/01/21 06:04:12;;;;;;;12.43;2.55;;;;;;;;;;4935978;29;20059;-75
2022/01/21 06:06:38;;;;;;;16.65;1.63;;;;;;;;;;4934268;28;20055;-75
2022/01/21 06:09:04;;;;;;;18.98;2.47;;;;;;;;;;4917633;29;20058;-74
2022/01/21 06:11:31;;;;;;;11.95;1.10;;;;;;;;;;4905350;29;20051;-75
2022/01/21 06:13:57;;;;;;;10.43;1.50;;;;;;;;;;4919821;29;20078;-75
2022/01/21 06:16:23;;;;;;;16.50;1.98;;;;;;;;;;4932568;29;20106;-75
2022/01/21 06:18:49;;;;;;;14.38;1.52;;;;;;;;;;4921154;29;20529;-74
2022/01/21 06:21:15;;;;;;;12.85;1.70;;;;;;;;;;4924078;29;20436;-75
2022/01/21 06:23:41;;;;;;;23.00;2.70;;;;;;;;;;4918791;28;20138;-75
2022/01/21 06:26:08;;;;;;;10.43;1.42;;;;;;;;;;4934978;29;20055;-74
2022/01/21 06:28:34;;;;;;;21.50;2.88;;;;;;;;;;4913599;29;20047;-74
2022/01/21 06:31:00;;;;;;;19.13;2.05;;;;;;;;;;4890285;29;20051;-74
2022/01/21 06:33:27;;;;;;;12.43;1.67;;;;;;;;;;4916028;29;20047;-75
2022/01/21 06:35:53;;;;;;;12.27;1.70;;;;;;;;;;4925495;29;20054;-75
2022/01/21 06:38:20;;;;;;;14.65;1.70;;;;;;;;;;4921616;29;20039;-75
2022/01/21 06:40:46;;;;;;;15.15;2.05;;;;;;;;;;4929319;28;20067;-75
2022/01/21 06:43:13;;;;;;;15.40;1.80;;;;;;;;;;4934542;29;20102;-75
2022/01/21 06:45:39;;;;;;;19.33;2.42;;;;;;;;;;4930559;29;20055;-75
2022/01/21 06:48:05;;;;;;;16.45;1.77;;;;;;;;;;4936093;29;20043;-75
2022/01/21 06:50:32;;;;;;;14.68;2.00;;;;;;;;;;4913625;29;20471;-75
2022/01/21 06:52:58;;;;;;;18.98;2.53;;;;;;;;;;4936551;29;20047;-75
2022/01/21 06:55:24;;;;;;;19.98;2.05;;;;;;;;;;4936337;29;20453;-73
2022/01/21 06:57:50;;;;;;;19.33;2.33;;;;;;;;;;4919974;29;20047;-76
2022/01/21 07:00:19;;;;;;;18.80;2.05;;;;;;;;;;4946984;29;20047;-75
2022/01/21 07:02:49;;;;;;;17.20;2.20;;;;;;;;;;4933898;29;20047;-75
2022/01/21 07:05:16;;;;;;;20.38;2.45;;;;;;;;;;4912708;29;20085;-75
2022/01/21 07:07:42;;;;;;;18.80;2.78;;;;;;;;;;4932290;29;20058;-76
2022/01/21 07:10:11;;;;;;;20.05;2.47;;;;;;;;;;4935736;29;20078;-75
2022/01/21 07:12:37;;;;;;;14.85;2.88;;;;;;;;;;4892662;29;20110;-75
2022/01/21 07:15:07;;;;;;;18.30;2.42;;;;;;;;;;4934476;28;20133;-74
2022/01/21 07:17:34;;;;;;;18.48;2.17;;;;;;;;;;4920107;29;20094;-75
2022/01/21 07:20:00;;;;;;;12.63;2.22;;;;;;;;;;4919937;29;20522;-75
2022/01/21 07:22:26;;;;;;;19.13;2.40;;;;;;;;;;4903287;29;20127;-75
2022/01/21 07:24:53;;;;;;;18.73;2.22;;;;;;;;;;4933752;29;20524;-76
2022/01/21 07:27:19;;;;;;;20.02;2.35;;;;;;;;;;4935318;29;20051;-75
2022/01/21 07:29:45;;;;;;;21.88;3.35;;;;;;;;;;4920201;29;20177;-75
2022/01/21 07:32:11;;;;;;;21.25;4.28;;;;;;;;;;4903661;29;20059;-76
2022/01/21 07:34:37;;;;;;;19.42;3.17;;;;;;;;;;4917988;29;20046;-74
2022/01/21 07:37:03;;;;;;;18.27;2.13;;;;;;;;;;4934802;29;20082;-75
2022/01/21 07:39:29;;;;;;;15.93;2.10;;;;;;;;;;4916573;29;20083;-76
2022/01/21 07:41:56;;;;;;;21.77;3.28;;;;;;;;;;4938270;29;20051;-75
2022/01/21 07:44:22;;;;;;;20.50;2.17;;;;;;;;;;4916692;29;20519;-75
2022/01/21 07:46:49;;;;;;;15.27;1.92;;;;;;;;;;4930829;29;20352;-76
2022/01/21 07:49:16;;;;;;;19.55;2.28;;;;;;;;;;4910744;29;20046;-75
2022/01/21 07:51:42;;;;;;;24.33;2.95;;;;;;;;;;4927740;29;20060;-77
2022/01/21 07:54:09;;;;;;;14.77;2.63;;;;;;;;;;4925843;29;20058;-76
2022/01/21 07:56:35;;;;;;;15.25;2.90;;;;;;;;;;4915317;29;20066;-75
2022/01/21 07:59:03;;;;;;;29.23;3.47;;;;;;;;;;4916161;29;20190;-76
2022/01/21 08:01:30;;;;;;;24.63;2.55;;;;;;;;;;4932084;29;20114;-76
2022/01/21 08:03:56;;;;;;;27.63;3.67;;;;;;;;;;4934391;29;20067;-76
2022/01/21 08:06:23;;;;;;;15.25;2.30;;;;;;;;;;4933848;29;20039;-75
2022/01/21 08:08:49;;;;;;;20.25;2.80;;;;;;;;;;4903154;29;20556;-76
2022/01/21 08:11:15;;;;;;;19.70;2.83;;;;;;;;;;4916368;29;20051;-75
2022/01/21 08:13:42;;;;;;;22.73;2.38;;;;;;;;;;4932343;29;20064;-76
2022/01/21 08:16:08;;;;;;;25.27;2.97;;;;;;;;;;4917322;29;20543;-75
2022/01/21 08:18:36;;;;;;;33.78;4.75;;;;;;;;;;4934206;29;20333;-75
2022/01/21 08:21:02;;;;;;;20.85;2.65;;;;;;;;;;4918426;29;20051;-76
2022/01/21 08:23:28;;;;;;;21.52;2.78;;;;;;;;;;4890307;29;20403;-75
2022/01/21 08:25:54;;;;;;;19.13;2.28;;;;;;;;;;4919338;29;20058;-75
2022/01/21 08:28:20;;;;;;;23.92;3.13;;;;;;;;;;4926023;29;20151;-75
2022/01/21 08:30:46;;;;;;;20.98;2.47;;;;;;;;;;4898527;29;20564;-75
2022/01/21 08:33:12;;;;;;;27.00;4.15;;;;;;;;;;4918397;29;20403;-75
2022/01/21 08:35:38;;;;;;;20.92;3.08;;;;;;;;;;4923530;29;20058;-75
2022/01/21 08:38:05;;;;;;;19.33;2.92;;;;;;;;;;4917286;29;20043;-76
2022/01/21 08:40:32;;;;;;;20.00;3.80;;;;;;;;;;4907168;29;20048;-75
2022/01/21 08:42:58;;;;;;;19.13;3.20;;;;;;;;;;4917168;29;20054;-75
2022/01/21 08:45:25;;;;;;;36.63;3.60;;;;;;;;;;4905783;29;20114;-77
2022/01/21 08:47:51;;;;;;;22.77;3.70;;;;;;;;;;4917495;29;20058;-76
2022/01/21 08:50:18;;;;;;;20.98;3.17;;;;;;;;;;4921116;29;20432;-77
2022/01/21 08:52:45;;;;;;;19.98;2.97;;;;;;;;;;4939310;29;20111;-76
2022/01/21 08:55:13;;;;;;;13.30;2.35;;;;;;;;;;4909433;29;20098;-79
2022/01/21 08:57:41;;;;;;;28.23;3.38;;;;;;;;;;4921802;29;20134;-78
2022/01/21 09:00:09;;;;;;;25.50;2.85;;;;;;;;;;4918747;29;20089;-76
2022/01/21 09:02:35;;;;;;;22.27;3.00;;;;;;;;;;4920228;29;20054;-76
2022/01/21 09:05:01;;;;;;;24.20;2.80;;;;;;;;;;4936867;29;20898;-76
2022/01/21 09:07:27;;;;;;;28.17;4.43;;;;;;;;;;4921058;29;20055;-76
2022/01/21 09:09:53;;;;;;;22.35;3.38;;;;;;;;;;4904766;29;20059;-76
2022/01/21 09:12:19;;;;;;;26.83;3.13;;;;;;;;;;4936286;29;20477;-76
2022/01/21 09:14:45;;;;;;;19.45;3.30;;;;;;;;;;4954159;28;20043;-76
2022/01/21 09:17:12;;;;;;;27.05;3.17;;;;;;;;;;4918915;29;20048;-76
2022/01/21 09:19:38;;;;;;;25.15;3.65;;;;;;;;;;4951565;29;20050;-76
2022/01/21 09:22:04;;;;;;;25.58;3.47;;;;;;;;;;4935207;29;20047;-76
2022/01/21 09:24:32;;;;;;;24.25;3.25;;;;;;;;;;4933638;29;20206;-75
2022/01/21 09:26:59;;;;;;;30.75;4.57;;;;;;;;;;4920076;29;20134;-76
2022/01/21 09:29:25;;;;;;;24.05;3.20;;;;;;;;;;4916369;29;20387;-76
2022/01/21 09:31:51;;;;;;;24.20;3.78;;;;;;;;;;4925882;29;20119;-76
2022/01/21 09:34:19;;;;;;;38.08;5.40;;;;;;;;;;4920677;29;20059;-81
2022/01/21 09:36:45;;;;;;;17.27;3.25;;;;;;;;;;4916411;29;20047;-76
2022/01/21 09:39:12;;;;;;;14.95;3.40;;;;;;;;;;4950313;29;20047;-74
2022/01/21 09:41:42;;;;;;;28.90;2.90;;;;;;;;;;4935488;29;20118;-74
2022/01/21 09:44:11;;;;;;;21.75;2.95;;;;;;;;;;4936082;29;20047;-76
2022/01/21 09:46:42;;;;;;;17.05;3.08;;;;;;;;;;4935785;29;20047;-73
2022/01/21 09:49:20;;;;;;;20.13;3.28;;;;;;;;;;4918990;29;20129;-74
2022/01/21 09:51:47;;;;;;;21.45;3.20;;;;;;;;;;4917195;29;20043;-74
2022/01/21 09:54:13;;;;;;;14.65;2.20;;;;;;;;;;4931526;29;20510;-73
2022/01/21 09:56:39;;;;;;;15.80;2.33;;;;;;;;;;4947696;29;20642;-74
2022/01/21 09:59:06;;;;;;;17.77;2.28;;;;;;;;;;4925804;29;20079;-74
2022/01/21 10:01:33;;;;;;;15.00;2.33;;;;;;;;;;4918555;29;20043;-74
2022/01/21 10:03:59;;;;;;;21.10;2.50;;;;;;;;;;4919851;29;20058;-74
2022/01/21 10:06:26;;;;;;;12.82;1.73;;;;;;;;;;4908901;29;20123;-74
2022/01/21 10:08:56;;;;;;;12.02;2.47;;;;;;;;;;4934840;29;20140;-74
2022/01/21 10:11:22;;;;;;;12.90;1.88;;;;;;;;;;4902857;29;20056;-74
2022/01/21 10:13:49;;;;;;;20.45;3.60;;;;;;;;;;4937615;29;20058;-74
2022/01/21 10:16:15;;;;;;;11.98;2.10;;;;;;;;;;4921537;29;20059;-73
2022/01/21 10:18:58;;;;;;;13.73;1.85;;;;;;;;;;4937298;29;20054;-73
2022/01/21 10:21:35;;;;;;;14.55;2.20;;;;;;;;;;4928524;29;20051;-72
2022/01/21 10:24:09;;;;;;;14.52;3.05;;;;;;;;;;4916693;29;20133;-75
2022/01/21 10:26:35;;;;;;;18.40;2.15;;;;;;;;;;4924001;29;20102;-74
2022/01/21 10:29:02;;;;;;;19.00;3.03;;;;;;;;;;4924998;29;20047;-73
2022/01/21 10:31:28;;;;;;;21.27;2.50;;;;;;;;;;4890781;29;20047;-74
2022/01/21 10:33:56;;;;;;;14.57;2.20;;;;;;;;;;4902593;29;20094;-74
2022/01/21 10:36:33;;;;;;;28.83;2.72;;;;;;;;;;4907661;29;20087;-74
2022/01/21 10:39:29;;;;;;;18.33;2.53;;;;;;;;;;4920443;29;20044;-75
2022/01/21 10:41:51;;;;;;;18.90;3.10;;;;;;;;;;4918942;29;20404;-74
2022/01/21 10:44:19;;;;;;;19.33;3.10;;;;;;;;;;4927334;29;20057;-76
2022/01/21 10:47:01;;;;;;;24.00;3.08;;;;;;;;;;4904988;29;20043;-75
2022/01/21 10:49:27;;;;;;;18.92;3.35;;;;;;;;;;4935137;29;20043;-75
2022/01/21 10:51:55;;;;;;;26.77;2.78;;;;;;;;;;4918925;29;20436;-75
2022/01/21 10:54:23;;;;;;;26.80;2.97;;;;;;;;;;4905338;29;20125;-75
2022/01/21 10:57:07;;;;;;;18.85;2.85;;;;;;;;;;4925053;29;20054;-75
2022/01/21 10:59:58;;;;;;;23.23;2.65;;;;;;;;;;4924434;29;20110;-75
2022/01/21 11:02:36;;;;;;;25.67;3.47;;;;;;;;;;4936163;29;20543;-76
2022/01/21 11:05:10;;;;;;;25.30;3.15;;;;;;;;;;4904053;29;20061;-75
2022/01/21 11:07:36;;;;;;;;;;;;;;;;;;4921383;29;20051;-75
2022/01/21 11:10:02;;;;;;;24.80;3.35;;;;;;;;;;4902582;29;19933;-75
2022/01/21 11:12:33;;;;;;;31.38;3.85;;;;;;;;;;4919999;29;20050;-74
2022/01/21 11:14:59;;;;;;;14.90;2.50;;;;;;;;;;4905842;28;20051;-75
2022/01/21 11:17:25;;;;;;;20.38;2.50;;;;;;;;;;4925317;29;20046;-74
2022/01/21 11:20:16;;;;;;;21.63;2.72;;;;;;;;;;4923703;29;20064;-75
2022/01/21 11:22:58;;;;;;;17.02;2.58;;;;;;;;;;4923385;29;20094;-74
2022/01/21 11:25:43;;;;;;;20.48;2.90;;;;;;;;;;4903692;29;20082;-74
2022/01/21 11:28:10;;;;;;;21.48;3.30;;;;;;;;;;4906365;29;20051;-74
2022/01/21 11:30:36;;;;;;;17.60;3.17;;;;;;;;;;4905002;29;20050;-75
2022/01/21 11:33:02;;;;;;;13.98;2.50;;;;;;;;;;4926695;29;20540;-75
2022/01/21 11:35:29;;;;;;;13.85;2.67;;;;;;;;;;4920155;29;20044;-75
2022/01/21 11:37:55;;;;;;;13.02;2.00;;;;;;;;;;4904683;29;20139;-74
2022/01/21 11:40:21;;;;;;;13.68;2.15;;;;;;;;;;4914586;29;20353;-76
2022/01/21 11:42:48;;;;;;;18.95;2.28;;;;;;;;;;4933078;29;20063;-75
2022/01/21 11:45:32;;;;;;;16.98;3.03;;;;;;;;;;4923109;29;20035;-75
2022/01/21 11:50:48;;;;;;;26.02;3.42;;;;;;;;;;4886823;29;20139;-75
2022/01/21 11:53:15;;;;;;;16.83;2.90;;;;;;;;;;4916673;29;20432;-75
2022/01/21 11:55:45;;;;;;;18.10;2.28;;;;;;;;;;4919130;29;20075;-76
2022/01/21 11:58:14;;;;;;;11.57;2.08;;;;;;;;;;4926208;29;20086;-75
2022/01/21 12:00:41;;;;;;;14.27;2.10;;;;;;;;;;4926088;29;20039;-75
2022/01/21 12:03:07;;;;;;;14.07;1.83;;;;;;;;;;4910321;29;20043;-75
2022/01/21 12:05:34;;;;;;;20.02;3.00;;;;;;;;;;4922459;29;20054;-75
2022/01/21 12:08:04;;;;;;;16.75;2.33;;;;;;;;;;4923984;29;20055;-75
2022/01/21 12:10:35;;;;;;;11.55;1.90;;;;;;;;;;4923306;29;20118;-75
2022/01/21 12:13:08;;;;;;;19.42;2.63;;;;;;;;;;4910091;29;20106;-76
2022/01/21 12:20:51;;;;;;;22.83;2.95;;;;;;;;;;4924888;29;20062;-75
2022/01/21 12:23:21;;;;;;;15.13;1.70;;;;;;;;;;4920301;29;20436;-75
2022/01/21 12:26:14;;;;;;;15.70;2.30;;;;;;;;;;4922056;29;20451;-73
2022/01/21 12:28:41;;;;;;;21.83;2.40;;;;;;;;;;4922043;29;20051;-74
2022/01/21 12:31:08;;;;;;;21.42;3.17;;;;;;;;;;4928993;29;20091;-75
2022/01/21 12:33:59;;;;;;;15.82;2.58;;;;;;;;;;4905556;29;20134;-75
2022/01/21 12:36:29;;;;;;;20.20;2.92;;;;;;;;;;4921310;29;20050;-75
2022/01/21 12:41:21;;;;;;;22.67;2.72;;;;;;;;;;4952887;28;20061;-76
2022/01/21 12:43:48;;;;;;;17.73;3.25;;;;;;;;;;4917847;29;20055;-75
2022/01/21 12:46:19;;;;;;;16.40;2.63;;;;;;;;;;4935124;29;20130;-76
2022/01/21 12:48:46;;;;;;;26.00;3.92;;;;;;;;;;4925878;29;20040;-76
2022/01/21 12:51:15;;;;;;;32.78;3.30;;;;;;;;;;4914783;29;20497;-75
2022/01/21 12:55:55;;;;;;;25.02;3.00;;;;;;;;;;4922983;29;20043;-76
2022/01/21 12:56:31;;;;;;;19.92;3.08;;;;;;;;;;4933125;29;20055;-76
2022/01/21 12:58:58;;;;;;;17.23;3.47;;;;;;;;;;4929716;29;20210;-75
2022/01/21 13:01:24;;;;;;;21.10;2.25;;;;;;;;;;4920328;29;20133;-76
2022/01/21 13:04:02;;;;;;;19.58;2.45;;;;;;;;;;4925869;29;20086;-76
2022/01/21 13:06:31;;;;;;;21.42;2.63;;;;;;;;;;4926661;29;20055;-75
2022/01/21 13:09:03;;;;;;;23.77;3.50;;;;;;;;;;4944842;29;20170;-75
2022/01/21 13:11:30;;;;;;;20.83;2.85;;;;;;;;;;4925240;29;20043;-76
2022/01/21 13:14:02;;;;;;;26.88;3.10;;;;;;;;;;4935599;29;20053;-76
2022/01/21 13:16:30;;;;;;;15.07;3.38;;;;;;;;;;4921123;29;20040;-75
2022/01/21 13:19:00;;;;;;;21.02;2.80;;;;;;;;;;4937092;29;20046;-75
2022/01/21 13:21:26;;;;;;;20.85;2.55;;;;;;;;;;4926201;29;20039;-76
2022/01/21 13:23:58;;;;;;;18.23;3.00;;;;;;;;;;4903841;29;20055;-76
2022/01/21 13:26:36;;;;;;;27.63;3.47;;;;;;;;;;4921851;29;20435;-74
2022/01/21 13:29:09;;;;;;;21.60;2.88;;;;;;;;;;4913311;29;20238;-78
2022/01/21 13:31:55;;;;;;;27.67;5.43;;;;;;;;;;4926325;29;20071;-75
2022/01/21 13:34:32;;;;;;;18.10;2.40;;;;;;;;;;4925640;29;20636;-74
2022/01/21 13:37:00;;;;;;;22.77;2.90;;;;;;;;;;4943137;29;20134;-74
2022/01/21 13:39:27;;;;;;;21.92;3.05;;;;;;;;;;4921743;29;20141;-73
2022/01/21 13:41:56;;;;;;;28.35;3.75;;;;;;;;;;4924472;29;20361;-74
2022/01/21 13:44:30;;;;;;;26.40;3.10;;;;;;;;;;4925026;29;20047;-73
2022/01/21 13:46:57;;;;;;;24.48;4.15;;;;;;;;;;4906506;29;20423;-73
2022/01/21 13:49:24;;;;;;;24.42;3.15;;;;;;;;;;4936364;29;20055;-74
2022/01/21 13:51:54;;;;;;;26.85;3.50;;;;;;;;;;4933550;29;20371;-74
2022/01/21 13:54:28;;;;;;;29.25;3.63;;;;;;;;;;4927500;29;20364;-74
2022/01/21 13:56:54;;;;;;;28.05;4.43;;;;;;;;;;4919855;29;20734;-75
2022/01/21 13:59:20;;;;;;;28.25;3.40;;;;;;;;;;4908102;29;20047;-74
2022/01/21 14:01:46;;;;;;;25.38;4.88;;;;;;;;;;4919330;29;20055;-73
2022/01/21 14:04:12;;;;;;;24.15;3.15;;;;;;;;;;4916864;29;20106;-74
2022/01/21 14:06:39;;;;;;;23.65;3.22;;;;;;;;;;4926620;29;20071;-75
2022/01/21 14:09:05;;;;;;;33.58;4.22;;;;;;;;;;4928686;29;20054;-74
2022/01/21 14:11:37;;;;;;;30.88;3.05;;;;;;;;;;4924061;29;20058;-73
2022/01/21 14:14:05;;;;;;;31.88;3.92;;;;;;;;;;4904561;29;20051;-73
2022/01/21 14:16:32;;;;;;;24.98;3.53;;;;;;;;;;4919195;29;20055;-72
2022/01/21 14:19:00;;;;;;;25.60;3.55;;;;;;;;;;4924048;29;20379;-75
2022/01/21 14:21:27;;;;;;;22.13;2.95;;;;;;;;;;4924838;28;20071;-73
2022/01/21 14:23:54;;;;;;;19.98;2.80;;;;;;;;;;4940812;29;20155;-73
2022/01/21 14:26:22;;;;;;;23.40;3.30;;;;;;;;;;4920897;29;20066;-74
2022/01/21 14:28:53;;;;;;;18.38;3.03;;;;;;;;;;4912041;29;20055;-73
2022/01/21 14:31:30;;;;;;;28.55;3.90;;;;;;;;;;4921352;29;20054;-74
2022/01/21 14:33:57;;;;;;;29.45;3.22;;;;;;;;;;4937282;29;20040;-73
2022/01/21 14:36:23;;;;;;;23.50;3.25;;;;;;;;;;4928229;29;20047;-75
2022/01/21 14:38:54;;;;;;;20.10;3.00;;;;;;;;;;4921139;29;20102;-74
2022/01/21 14:41:21;;;;;;;21.13;2.75;;;;;;;;;;4904296;29;20066;-74
2022/01/21 14:43:55;;;;;;;28.17;2.97;;;;;;;;;;4935394;29;20066;-74
2022/01/21 14:46:25;;;;;;;28.10;4.70;;;;;;;;;;4919931;29;20047;-75
2022/01/21 14:49:05;;;;;;;22.70;3.08;;;;;;;;;;4929266;29;20480;-74
2022/01/21 14:51:45;;;;;;;21.17;2.65;;;;;;;;;;4940691;28;20055;-75
2022/01/21 14:54:19;;;;;;;16.90;2.25;;;;;;;;;;4907114;29;20455;-73
2022/01/21 14:56:59;;;;;;;17.60;2.70;;;;;;;;;;4917260;28;20462;-74
2022/01/21 14:59:25;;;;;;;23.73;3.35;;;;;;;;;;4933817;29;20134;-74
2022/01/21 15:02:00;;;;;;;15.13;2.80;;;;;;;;;;4903809;29;20401;-74
2022/01/21 15:04:26;;;;;;;20.77;2.25;;;;;;;;;;4917412;29;20056;-75
2022/01/21 15:07:26;;;;;;;23.38;2.90;;;;;;;;;;4924561;29;20059;-75
2022/01/21 15:09:58;;;;;;;18.33;3.53;;;;;;;;;;4887100;29;20089;-74
2022/01/21 15:15:35;;;;;;;18.00;2.30;;;;;;;;;;4921536;29;20062;-73
2022/01/21 15:18:03;;;;;;;20.63;2.50;;;;;;;;;;4920847;28;20429;-74
2022/01/21 15:20:36;;;;;;;16.05;2.05;;;;;;;;;;4912285;29;20787;-73
2022/01/21 15:23:04;;;;;;;18.50;2.33;;;;;;;;;;4933983;28;20138;-74
2022/01/21 15:25:30;;;;;;;10.82;1.92;;;;;;;;;;4925026;29;20055;-74
2022/01/21 15:27:57;;;;;;;10.30;1.55;;;;;;;;;;4916666;29;20050;-74
2022/01/21 15:33:08;;;;;;;16.17;3.22;;;;;;;;;;4919311;29;20753;-74
2022/01/21 15:35:34;;;;;;;12.90;1.75;;;;;;;;;;4915953;29;20419;-74
2022/01/21 15:38:00;;;;;;;;;;;;;;;;;;4949305;29;20043;-74